createdAt,value
2018-07-30T00:02:03.311Z,16.40
2018-07-30T00:04:30.985Z,16.40
2018-07-30T00:09:26.234Z,16.40
2018-07-30T00:16:48.890Z,16.40
2018-07-30T00:19:16.541Z,16.40
2018-07-30T00:21:44.221Z,16.30
2018-07-30T00:24:11.886Z,16.20
2018-07-30T00:26:39.516Z,16.20
2018-07-30T00:29:07.174Z,16.40
2018-07-30T00:31:34.871Z,16.40
2018-07-30T00:34:02.526Z,16.40
2018-07-30T00:36:30.180Z,16.30
2018-07-30T00:38:57.811Z,16.20
2018-07-30T00:41:25.471Z,16.20
2018-07-30T00:43:53.171Z,16.20
2018-07-30T00:51:15.936Z,16.30
2018-07-30T00:53:43.604Z,16.20
2018-07-30T00:56:11.253Z,16.20
2018-07-30T01:03:33.984Z,16.00
2018-07-30T01:06:01.614Z,16.10
2018-07-30T01:08:29.224Z,16.10
2018-07-30T01:10:56.869Z,16.00
2018-07-30T01:13:24.509Z,16.00
2018-07-30T01:15:52.135Z,16.00
2018-07-30T01:20:47.430Z,15.80
2018-07-30T01:23:15.076Z,15.70
2018-07-30T01:28:10.176Z,15.60
2018-07-30T01:30:37.819Z,15.60
2018-07-30T01:33:05.440Z,15.60
2018-07-30T01:35:33.080Z,15.60
2018-07-30T01:40:28.231Z,15.50
2018-07-30T01:42:55.894Z,15.50
2018-07-30T01:45:23.564Z,15.40
2018-07-30T01:47:51.186Z,15.40
2018-07-30T01:50:18.822Z,15.30
2018-07-30T01:52:46.515Z,15.30
2018-07-30T01:55:14.204Z,15.30
2018-07-30T01:57:41.916Z,15.30
2018-07-30T02:00:09.681Z,15.30
2018-07-30T02:02:42.866Z,15.20
2018-07-30T02:05:10.887Z,15.20
2018-07-30T02:10:07.728Z,15.10
2018-07-30T02:12:35.384Z,15.10
2018-07-30T02:15:03.093Z,15.10
2018-07-30T02:17:30.725Z,15.10
2018-07-30T02:19:58.540Z,15.10
2018-07-30T02:22:26.156Z,15.30
2018-07-30T02:24:53.876Z,15.40
2018-07-30T02:29:49.102Z,15.40
2018-07-30T02:32:16.733Z,15.40
2018-07-30T02:34:44.402Z,15.30
2018-07-30T02:37:12.143Z,15.30
2018-07-30T02:44:34.863Z,15.20
2018-07-30T02:47:02.498Z,15.10
2018-07-30T02:49:30.129Z,15.00
2018-07-30T02:54:25.331Z,14.80
2018-07-30T02:56:53.921Z,14.90
2018-07-30T02:59:21.510Z,14.80
2018-07-30T03:01:49.187Z,14.70
2018-07-30T03:04:16.837Z,14.80
2018-07-30T03:06:44.516Z,14.90
2018-07-30T03:09:12.201Z,14.90
2018-07-30T03:11:39.995Z,14.80
2018-07-30T03:14:08.052Z,14.70
2018-07-30T03:16:35.683Z,14.60
2018-07-30T03:19:03.433Z,14.50
2018-07-30T03:21:31.173Z,14.50
2018-07-30T03:23:58.875Z,14.50
2018-07-30T03:26:26.556Z,14.50
2018-07-30T03:28:54.256Z,14.50
2018-07-30T03:31:21.976Z,14.50
2018-07-30T03:36:17.206Z,14.40
2018-07-30T03:41:12.626Z,14.40
2018-07-30T03:46:08.188Z,14.40
2018-07-30T03:51:03.461Z,14.40
2018-07-30T03:53:31.163Z,14.40
2018-07-30T03:55:58.786Z,14.40
2018-07-30T03:58:26.428Z,14.40
2018-07-30T04:00:54.166Z,14.30
2018-07-30T04:03:21.826Z,14.40
2018-07-30T04:05:49.612Z,14.30
2018-07-30T04:10:44.904Z,14.30
2018-07-30T04:13:12.639Z,14.30
2018-07-30T04:15:40.293Z,14.40
2018-07-30T04:18:07.954Z,14.60
2018-07-30T04:20:35.627Z,14.70
2018-07-30T04:23:03.478Z,14.70
2018-07-30T04:25:31.247Z,14.70
2018-07-30T04:27:58.866Z,14.80
2018-07-30T04:30:26.546Z,14.90
2018-07-30T04:32:54.212Z,14.90
2018-07-30T04:35:21.906Z,14.90
2018-07-30T04:37:49.501Z,14.80
2018-07-30T04:40:17.173Z,14.80
2018-07-30T04:42:44.804Z,14.80
2018-07-30T04:45:12.503Z,14.90
2018-07-30T04:47:40.089Z,14.90
2018-07-30T04:52:35.279Z,14.90
2018-07-30T04:55:03.026Z,14.90
2018-07-30T04:57:30.697Z,14.90
2018-07-30T04:59:58.378Z,15.00
2018-07-30T05:02:26.028Z,15.10
2018-07-30T05:04:53.662Z,15.20
2018-07-30T05:07:21.361Z,15.30
2018-07-30T05:09:48.987Z,15.30
2018-07-30T05:12:16.643Z,15.30
2018-07-30T05:14:44.333Z,15.30
2018-07-30T05:19:39.469Z,15.40
2018-07-30T05:22:07.114Z,15.50
2018-07-30T05:24:34.716Z,15.60
2018-07-30T05:27:02.404Z,15.70
2018-07-30T05:29:30.060Z,15.80
2018-07-30T05:31:57.760Z,15.80
2018-07-30T05:34:25.374Z,15.90
2018-07-30T05:39:20.587Z,16.00
2018-07-30T05:41:48.274Z,16.10
2018-07-30T05:44:15.964Z,16.20
2018-07-30T05:46:43.599Z,16.30
2018-07-30T05:51:38.831Z,16.50
2018-07-30T05:54:06.499Z,16.70
2018-07-30T05:56:34.202Z,16.80
2018-07-30T06:01:29.517Z,17.10
2018-07-30T06:08:52.421Z,17.60
2018-07-30T06:11:20.052Z,17.70
2018-07-30T06:13:47.737Z,17.80
2018-07-30T06:16:15.399Z,17.90
2018-07-30T06:18:43.154Z,18.10
2018-07-30T06:21:10.835Z,18.30
2018-07-30T06:23:38.533Z,18.50
2018-07-30T06:31:01.250Z,19.10
2018-07-30T06:33:28.889Z,19.30
2018-07-30T06:38:24.173Z,19.60
2018-07-30T06:40:51.789Z,19.90
2018-07-30T06:43:20.514Z,20.10
2018-07-30T06:45:48.181Z,20.30
2018-07-30T06:48:15.819Z,20.50
2018-07-30T06:53:11.204Z,20.80
2018-07-30T06:55:38.925Z,20.90
2018-07-30T07:00:35.084Z,21.00
2018-07-30T07:05:30.318Z,21.00
2018-07-30T07:07:58.042Z,21.00
2018-07-30T07:12:53.260Z,21.20
2018-07-30T07:15:20.980Z,21.40
2018-07-30T07:17:48.778Z,21.50
2018-07-30T07:20:16.428Z,21.70
2018-07-30T07:25:11.652Z,22.10
2018-07-30T07:27:39.270Z,22.30
2018-07-30T07:30:07.864Z,22.50
2018-07-30T07:32:35.491Z,22.70
2018-07-30T07:35:03.405Z,23.00
2018-07-30T07:37:31.058Z,23.30
2018-07-30T07:39:58.745Z,23.40
2018-07-30T07:42:26.360Z,23.60
2018-07-30T07:44:54.037Z,23.80
2018-07-30T07:47:21.648Z,24.20
2018-07-30T07:49:49.300Z,24.30
2018-07-30T07:52:16.974Z,24.50
2018-07-30T07:54:44.614Z,24.50
2018-07-30T07:57:12.334Z,24.70
2018-07-30T07:59:40.055Z,24.70
2018-07-30T08:02:07.920Z,24.70
2018-07-30T08:04:35.618Z,24.60
2018-07-30T08:07:03.388Z,24.50
2018-07-30T08:09:31.070Z,24.40
2018-07-30T08:11:58.821Z,24.40
2018-07-30T08:14:26.583Z,24.60
2018-07-30T08:16:54.345Z,24.70
2018-07-30T08:19:22.023Z,24.80
2018-07-30T08:21:49.683Z,24.90
2018-07-30T08:24:17.322Z,25.00
2018-07-30T08:26:44.994Z,24.90
2018-07-30T08:34:07.844Z,25.40
2018-07-30T08:36:35.555Z,25.50
2018-07-30T08:41:30.905Z,25.60
2018-07-30T08:46:26.088Z,25.80
2018-07-30T08:48:54.527Z,25.90
2018-07-30T08:51:22.203Z,26.00
2018-07-30T08:53:49.819Z,26.20
2018-07-30T08:56:17.567Z,26.30
2018-07-30T09:01:12.818Z,26.50
2018-07-30T09:03:40.508Z,26.60
2018-07-30T09:06:08.153Z,26.60
2018-07-30T09:08:35.873Z,26.50
2018-07-30T09:11:03.635Z,26.40
2018-07-30T09:18:26.401Z,25.70
2018-07-30T09:20:54.064Z,25.70
2018-07-30T09:25:49.200Z,25.90
2018-07-30T09:30:44.403Z,26.40
2018-07-30T09:33:12.169Z,26.90
2018-07-30T09:35:39.938Z,27.30
2018-07-30T09:38:07.595Z,27.70
2018-07-30T09:40:35.248Z,28.10
2018-07-30T09:43:02.898Z,28.30
2018-07-30T09:45:30.608Z,28.40
2018-07-30T09:47:58.297Z,28.50
2018-07-30T09:50:26.006Z,28.70
2018-07-30T09:52:53.730Z,28.80
2018-07-30T09:57:48.978Z,29.30
2018-07-30T10:00:21.233Z,29.30
2018-07-30T10:02:48.906Z,28.90
2018-07-30T10:05:16.594Z,28.50
2018-07-30T10:07:44.245Z,28.10
2018-07-30T10:10:11.923Z,27.50
2018-07-30T10:12:39.563Z,27.30
2018-07-30T10:15:07.205Z,27.80
2018-07-30T10:20:02.443Z,27.80
2018-07-30T10:24:57.601Z,27.20
2018-07-30T10:27:25.275Z,27.00
2018-07-30T10:29:52.924Z,27.60
2018-07-30T10:32:20.560Z,28.60
2018-07-30T10:34:48.179Z,29.80
2018-07-30T10:37:15.815Z,29.80
2018-07-30T10:39:43.534Z,31.30
2018-07-30T10:42:11.180Z,32.30
2018-07-30T10:44:38.894Z,32.60
2018-07-30T10:47:06.678Z,32.50
2018-07-30T10:49:34.386Z,32.40
2018-07-30T10:52:02.224Z,32.80
2018-07-30T10:54:29.894Z,32.90
2018-07-30T10:56:57.632Z,34.10
2018-07-30T10:59:25.292Z,34.70
2018-07-30T11:01:53.034Z,35.10
2018-07-30T11:04:20.775Z,35.20
2018-07-30T11:06:48.594Z,35.10
2018-07-30T11:09:16.210Z,34.20
2018-07-30T11:11:43.920Z,33.80
2018-07-30T11:14:11.676Z,33.80
2018-07-30T11:19:07.775Z,33.10
2018-07-30T11:21:35.526Z,32.50
2018-07-30T11:24:03.259Z,32.50
2018-07-30T11:26:30.898Z,32.60
2018-07-30T11:28:59.169Z,32.70
2018-07-30T11:31:26.785Z,32.70
2018-07-30T11:33:54.471Z,31.90
2018-07-30T11:36:22.152Z,31.80
2018-07-30T11:41:17.365Z,29.70
2018-07-30T11:43:45.089Z,29.10
2018-07-30T11:46:12.746Z,28.80
2018-07-30T11:48:40.469Z,28.50
2018-07-30T11:51:08.042Z,28.20
2018-07-30T11:53:35.690Z,28.10
2018-07-30T11:56:03.388Z,27.90
2018-07-30T11:58:31.067Z,27.90
2018-07-30T12:00:58.787Z,27.70
2018-07-30T12:03:26.500Z,27.70
2018-07-30T12:05:54.298Z,27.50
2018-07-30T12:08:21.971Z,27.50
2018-07-30T12:13:17.227Z,28.00
2018-07-30T12:15:44.790Z,28.60
2018-07-30T12:18:12.505Z,29.80
2018-07-30T12:20:40.209Z,30.80
2018-07-30T12:25:35.364Z,32.30
2018-07-30T12:28:03.100Z,32.90
2018-07-30T12:32:58.500Z,34.00
2018-07-30T12:35:26.180Z,34.00
2018-07-30T12:37:53.831Z,34.70
2018-07-30T12:40:21.573Z,34.60
2018-07-30T12:42:49.235Z,35.30
2018-07-30T12:45:21.490Z,36.10
2018-07-30T12:47:49.230Z,36.00
2018-07-30T12:50:16.900Z,36.10
2018-07-30T12:52:44.496Z,34.50
2018-07-30T12:55:12.187Z,34.50
2018-07-30T12:57:39.834Z,33.50
2018-07-30T13:00:07.677Z,33.40
2018-07-30T13:02:35.315Z,33.40
2018-07-30T13:05:03.075Z,34.30
2018-07-30T13:07:30.674Z,34.00
2018-07-30T13:09:58.371Z,33.80
2018-07-30T13:12:26.047Z,33.80
2018-07-30T13:14:53.674Z,34.10
2018-07-30T13:17:21.286Z,34.10
2018-07-30T13:19:49.016Z,34.20
2018-07-30T13:22:16.659Z,33.30
2018-07-30T13:24:44.407Z,33.70
2018-07-30T13:27:12.032Z,33.90
2018-07-30T13:29:39.654Z,34.10
2018-07-30T13:32:07.320Z,34.00
2018-07-30T13:34:34.960Z,33.80
2018-07-30T13:37:02.581Z,34.30
2018-07-30T13:39:30.224Z,34.30
2018-07-30T13:41:57.877Z,34.00
2018-07-30T13:44:25.657Z,33.90
2018-07-30T13:46:53.227Z,34.70
2018-07-30T13:49:20.902Z,34.70
2018-07-30T13:51:48.644Z,35.10
2018-07-30T13:54:16.297Z,35.00
2018-07-30T13:56:43.907Z,34.60
2018-07-30T13:59:11.546Z,34.90
2018-07-30T14:01:39.211Z,36.00
2018-07-30T14:04:06.899Z,36.00
2018-07-30T14:06:34.563Z,37.60
2018-07-30T14:09:02.336Z,37.60
2018-07-30T14:11:30.025Z,38.30
2018-07-30T14:13:57.641Z,39.10
2018-07-30T14:16:25.323Z,37.80
2018-07-30T14:18:53.008Z,37.40
2018-07-30T14:21:20.666Z,36.90
2018-07-30T14:23:48.302Z,36.60
2018-07-30T14:26:15.955Z,36.50
2018-07-30T14:28:43.588Z,36.10
2018-07-30T14:31:11.243Z,36.10
2018-07-30T14:33:38.904Z,36.60
2018-07-30T14:36:06.736Z,37.60
2018-07-30T14:38:34.437Z,37.90
2018-07-30T14:41:02.143Z,36.80
2018-07-30T14:43:29.806Z,36.00
2018-07-30T14:45:57.471Z,35.80
2018-07-30T14:48:25.108Z,36.30
2018-07-30T14:50:52.736Z,36.50
2018-07-30T14:53:20.431Z,36.70
2018-07-30T14:55:48.046Z,36.50
2018-07-30T14:58:15.725Z,36.40
2018-07-30T15:00:43.562Z,36.20
2018-07-30T15:03:12.267Z,36.00
2018-07-30T15:05:39.899Z,35.60
2018-07-30T15:08:07.502Z,35.30
2018-07-30T15:10:35.242Z,34.70
2018-07-30T15:13:03.034Z,33.60
2018-07-30T15:15:30.720Z,33.30
2018-07-30T15:17:58.347Z,33.20
2018-07-30T15:20:26.177Z,34.10
2018-07-30T15:22:53.797Z,35.00
2018-07-30T15:25:21.535Z,36.10
2018-07-30T15:27:49.242Z,36.40
2018-07-30T15:30:16.870Z,36.40
2018-07-30T15:32:44.512Z,36.30
2018-07-30T15:35:12.121Z,36.30
2018-07-30T15:37:39.805Z,36.10
2018-07-30T15:40:07.512Z,36.00
2018-07-30T15:42:35.185Z,35.90
2018-07-30T15:45:02.868Z,35.90
2018-07-30T15:47:30.504Z,35.80
2018-07-30T15:49:58.166Z,35.80
2018-07-30T15:52:25.846Z,35.80
2018-07-30T15:54:54.368Z,36.50
2018-07-30T15:57:22.048Z,36.00
2018-07-30T15:59:49.778Z,35.50
2018-07-30T16:02:17.541Z,35.30
2018-07-30T16:04:45.241Z,35.10
2018-07-30T16:07:12.931Z,34.60
2018-07-30T16:09:40.600Z,34.20
2018-07-30T16:12:08.450Z,34.00
2018-07-30T16:14:36.221Z,34.10
2018-07-30T16:17:03.956Z,33.70
2018-07-30T16:19:31.709Z,33.40
2018-07-30T16:21:59.600Z,33.00
2018-07-30T16:24:27.286Z,32.90
2018-07-30T16:26:54.920Z,32.80
2018-07-30T16:29:22.596Z,32.60
2018-07-30T16:31:50.256Z,32.40
2018-07-30T16:34:18.051Z,32.10
2018-07-30T16:36:45.765Z,31.90
2018-07-30T16:39:13.575Z,31.90
2018-07-30T16:41:41.310Z,31.70
2018-07-30T16:44:09.101Z,31.70
2018-07-30T16:46:36.878Z,31.80
2018-07-30T16:49:04.892Z,31.90
2018-07-30T16:54:05.930Z,31.30
2018-07-30T16:56:33.646Z,31.20
2018-07-30T16:59:01.371Z,31.10
2018-07-30T17:01:29.190Z,31.00
2018-07-30T17:03:56.895Z,30.80
2018-07-30T17:06:24.642Z,30.70
2018-07-30T17:08:52.362Z,30.70
2018-07-30T17:11:20.248Z,30.60
2018-07-30T17:13:47.920Z,30.50
2018-07-30T17:16:15.701Z,30.30
2018-07-30T17:18:43.414Z,30.10
2018-07-30T17:21:11.213Z,30.10
2018-07-30T17:23:38.850Z,29.90
2018-07-30T17:26:06.677Z,29.80
2018-07-30T17:28:34.661Z,29.70
2018-07-30T17:31:02.491Z,29.60
2018-07-30T17:33:30.286Z,29.50
2018-07-30T17:35:58.386Z,29.40
2018-07-30T17:38:26.296Z,29.20
2018-07-30T17:40:54.022Z,29.10
2018-07-30T17:43:21.670Z,28.90
2018-07-30T17:45:49.620Z,28.90
2018-07-30T17:48:17.301Z,28.70
2018-07-30T17:50:45.011Z,28.60
2018-07-30T17:53:12.716Z,28.50
2018-07-30T17:55:40.448Z,28.40
2018-07-30T17:58:08.506Z,28.20
2018-07-30T18:00:36.348Z,28.00
2018-07-30T18:03:04.187Z,27.90
2018-07-30T18:05:31.817Z,27.50
2018-07-30T18:07:59.565Z,27.30
2018-07-30T18:10:27.217Z,27.10
2018-07-30T18:12:54.892Z,26.80
2018-07-30T18:15:22.541Z,26.50
2018-07-30T18:17:50.331Z,26.40
2018-07-30T18:20:18.132Z,26.10
2018-07-30T18:22:45.833Z,26.00
2018-07-30T18:25:13.533Z,25.80
2018-07-30T18:27:41.246Z,25.60
2018-07-30T18:30:08.998Z,25.50
2018-07-30T18:32:36.767Z,25.30
2018-07-30T18:35:04.442Z,25.10
2018-07-30T18:37:32.236Z,25.00
2018-07-30T18:39:59.982Z,24.80
2018-07-30T18:42:27.786Z,24.60
2018-07-30T18:44:55.641Z,24.40
2018-07-30T18:47:23.427Z,24.30
2018-07-30T18:49:51.322Z,24.10
2018-07-30T18:52:19.093Z,24.00
2018-07-30T18:54:46.902Z,23.90
2018-07-30T18:57:14.654Z,23.80
2018-07-30T18:59:42.394Z,23.70
2018-07-30T19:02:10.233Z,23.60
2018-07-30T19:04:38.012Z,23.40
2018-07-30T19:07:05.792Z,23.40
2018-07-30T19:09:33.523Z,23.30
2018-07-30T19:12:01.249Z,23.20
2018-07-30T19:14:29.097Z,23.10
2018-07-30T19:16:56.884Z,23.10
2018-07-30T19:19:24.685Z,23.00
2018-07-30T19:21:52.523Z,22.90
2018-07-30T19:24:20.656Z,22.80
2018-07-30T19:26:48.493Z,22.70
2018-07-30T19:29:16.436Z,22.60
2018-07-30T19:31:44.208Z,22.50
2018-07-30T19:34:12.034Z,22.40
2018-07-30T19:36:40.064Z,22.30
2018-07-30T19:39:10.764Z,22.20
2018-07-30T19:41:38.732Z,22.20
2018-07-30T19:44:06.865Z,22.10
2018-07-30T19:46:34.587Z,22.00
2018-07-30T19:49:02.568Z,22.00
2018-07-30T19:51:30.415Z,21.80
2018-07-30T19:56:25.938Z,21.70
2018-07-30T19:58:53.788Z,21.70
2018-07-30T20:01:21.553Z,21.50
2018-07-30T20:03:49.295Z,21.50
2018-07-30T20:06:17.127Z,21.40
2018-07-30T20:08:44.963Z,21.20
2018-07-30T20:11:12.843Z,21.20
2018-07-30T20:13:40.594Z,21.10
2018-07-30T20:16:08.369Z,21.10
2018-07-30T20:18:36.184Z,21.10
2018-07-30T20:21:03.952Z,20.90
2018-07-30T20:23:31.714Z,20.90
2018-07-30T20:25:59.372Z,20.80
2018-07-30T20:28:27.708Z,20.80
2018-07-30T20:30:55.471Z,20.70
2018-07-30T20:33:23.203Z,20.70
2018-07-30T20:35:50.903Z,20.60
2018-07-30T20:38:18.610Z,20.80
2018-07-30T20:40:46.307Z,20.70
2018-07-30T20:43:14.038Z,20.70
2018-07-30T20:45:41.678Z,20.70
2018-07-30T20:48:09.418Z,20.60
2018-07-30T20:50:37.116Z,20.60
2018-07-30T20:53:04.988Z,20.60
2018-07-30T20:55:32.747Z,20.60
2018-07-30T20:58:00.458Z,20.60
2018-07-30T21:00:28.268Z,20.50
2018-07-30T21:02:56.008Z,20.50
2018-07-30T21:05:28.252Z,20.50
2018-07-30T21:07:56.068Z,20.40
2018-07-30T21:10:23.809Z,20.30
2018-07-30T21:12:51.484Z,20.30
2018-07-30T21:15:19.229Z,20.20
2018-07-30T21:17:46.988Z,20.10
2018-07-30T21:20:14.653Z,20.00
2018-07-30T21:22:42.347Z,20.00
2018-07-30T21:25:10.077Z,20.00
2018-07-30T21:27:37.843Z,20.00
2018-07-30T21:30:06.744Z,20.00
2018-07-30T21:32:34.523Z,19.90
2018-07-30T21:35:02.208Z,19.90
2018-07-30T21:37:29.977Z,19.80
2018-07-30T21:39:57.601Z,19.70
2018-07-30T21:42:25.307Z,19.70
2018-07-30T21:44:52.986Z,19.60
2018-07-30T21:47:20.709Z,19.70
2018-07-30T21:49:48.297Z,19.70
2018-07-30T21:52:16.143Z,19.70
2018-07-30T21:54:43.850Z,19.90
2018-07-30T21:59:39.132Z,19.60
2018-07-30T22:02:06.805Z,19.50
2018-07-30T22:07:02.110Z,19.40
2018-07-30T22:09:29.862Z,19.30
2018-07-30T22:11:57.636Z,19.30
2018-07-30T22:14:25.359Z,19.20
2018-07-30T22:16:53.659Z,19.20
2018-07-30T22:19:21.385Z,19.10
2018-07-30T22:21:48.997Z,19.10
2018-07-30T22:24:16.676Z,19.00
2018-07-30T22:26:44.299Z,18.90
2018-07-30T22:29:12.002Z,18.90
2018-07-30T22:31:39.618Z,18.90
2018-07-30T22:34:07.284Z,18.90
2018-07-30T22:36:34.919Z,18.80
2018-07-30T22:39:04.969Z,18.80
2018-07-30T22:41:32.609Z,18.70
2018-07-30T22:44:00.234Z,18.70
2018-07-30T22:46:27.878Z,18.70
2018-07-30T22:48:55.523Z,18.60
2018-07-30T22:51:23.102Z,18.60
2018-07-30T22:53:50.763Z,18.50
2018-07-30T22:56:18.404Z,18.50
2018-07-30T22:58:46.079Z,18.50
2018-07-30T23:01:13.815Z,18.50
2018-07-30T23:06:08.953Z,18.40
2018-07-30T23:08:36.583Z,18.40
2018-07-30T23:11:04.233Z,18.20
2018-07-30T23:13:31.806Z,18.30
2018-07-30T23:15:59.583Z,18.30
2018-07-30T23:18:27.232Z,18.20
2018-07-30T23:20:55.012Z,18.20
2018-07-30T23:23:22.632Z,18.10
2018-07-30T23:28:17.758Z,18.00
2018-07-30T23:30:45.368Z,18.00
2018-07-30T23:33:13.044Z,19.60
2018-07-30T23:35:40.784Z,17.90
2018-07-30T23:40:35.877Z,17.90
2018-07-30T23:45:31.002Z,17.90
2018-07-30T23:52:53.838Z,17.90
2018-07-30T23:55:21.492Z,17.90
2018-07-30T23:57:49.178Z,17.90
